Accueil
METAR-TAF:

METAR-TAF

Aéroports :

Calvi, France

Aéroport de Calvi-Sainte-Catherine

latitude: 42-32N, longitude: 008-48E, altitude: 64 m

Observation

Le bulletin a été fait il y a 18 minutes, à 10:30 UTC
Vent 17 kt de sud/sud-ouest, variant entre sud et ouest
Température 27°C
Humidité 32%
Pression 1007 hPa
Visibilité 10 km ou plus
Quelques nuages à une hauteur de 6600 ft

METAR: LFKC 291030Z 21017KT 180V260 9999 FEW066 27/09 Q1007 TEMPO 22017G27KT

Heure: 12:48 (10:48 UTC)

Prévision

Le bulletin a été fait il y a 5 heures et 48 minutes, à 05:00 UTC
Prévision valable du 29 à 06 UTC au 30 à 06 UTC
Vent 12 kt de sud-ouest
Visibilité 10 km ou plus
Quelques nuages à une hauteur de 4000 ft
Temporairement
du 29 à 06 UTC au 29 à 18 UTC
Vent 15 kt de sud-ouest avec des rafales jusqu'à 25 kt

TAF: LFKC 290500Z 2906/3006 22012KT 9999 FEW040 TEMPO 2906/2918 22015G25KT TX29/2912Z TN20/3004Z

Observations et prévisions météorologiques de plus de 4000 aéroports (messages METAR et TAF).

Les stations disponibles sont représentées par des disques jaunes et rouges sur la carte.

Passer la souris dessus pour voir le nom de la station.

Cliquer dessus pour voir les observations et prévisions météorologiques.

Pour changer de carte: cliquez sur les boutons verts avec une croix noire pour zoomer, sur le bouton vert avec un tiret pour effectuer un zoom arrière, ou sur les flèches vertes pour les cartes adjacentes.


METAR-TAF: